Time;durP1;ratioP1;P1;durP2;ratioP2;P2;SDS_P1;SDS_P2;PMS_P1;PMS_P2;Temp;Humidity;BMP_temperature;BMP_pressure;BME280_temperature;BME280_humidity;BME280_pressure;Samples;Min_cycle;Max_cycle;Signal;HPM_P1;HPM_P2
2023/07/28 00:01:58;;;;;;;;;;;;;;;15.59;66.25;100263.92;108858;1259;59772;-83
2023/07/28 00:04:25;;;;;;;;;;;;;;;15.62;66.14;100263.02;108840;1259;125866;-83
2023/07/28 00:06:53;;;;;;;;;;;;;;;15.66;66.15;100263.71;108840;1259;75972;-83
2023/07/28 00:09:23;;;;;;;;;;;;;;;15.68;66.15;100258.77;108727;1261;125492;-83
2023/07/28 00:11:50;;;;;;;;;;;;;;;15.69;66.25;100253.45;108885;1259;71828;-85
2023/07/28 00:14:18;;;;;;;;;;;;;;;15.71;66.24;100254.50;108852;1259;59746;-85
2023/07/28 00:16:51;;;;;;;;;;;;;;;15.73;66.32;100250.98;108736;1260;125151;-82
2023/07/28 00:19:19;;;;;;;;;;;;;;;15.74;66.32;100245.67;108837;1259;75482;-82
2023/07/28 00:21:47;;;;;;;;;;;;;;;15.77;66.35;100235.23;108690;1259;125574;-83
2023/07/28 00:24:14;;;;;;;;;;;;;;;15.80;66.31;100233.64;108883;1259;72451;-83
2023/07/28 00:26:41;;;;;;;;;;;;;;;15.81;66.11;100226.37;108757;1259;125614;-83
2023/07/28 00:29:08;;;;;;;;;;;;;;;15.82;66.12;100225.65;108803;1259;60129;-84
2023/07/28 00:31:35;;;;;;;;;;;;;;;15.84;66.02;100226.71;108770;1260;75218;-83
2023/07/28 00:34:04;;;;;;;;;;;;;;;15.84;66.08;100222.28;108703;1260;125228;-83
2023/07/28 00:36:31;;;;;;;;;;;;;;;15.84;65.97;100217.34;108812;1259;71385;-84
2023/07/28 00:38:58;;;;;;;;;;;;;;;15.82;65.96;100217.16;108751;1259;125697;-83
2023/07/28 00:41:34;;;;;;;;;;;;;;;15.82;66.07;100213.98;108814;1259;60760;-84
2023/07/28 00:44:02;;;;;;;;;;;;;;;15.81;66.11;100212.39;108830;1259;75582;-83
2023/07/28 00:46:30;;;;;;;;;;;;;;;15.80;66.18;100208.67;108702;1260;124961;-82
2023/07/28 00:48:57;;;;;;;;;;;;;;;15.80;66.31;100203.20;108815;1259;71426;-83
2023/07/28 00:51:24;;;;;;;;;;;;;;;15.77;66.47;100196.67;108759;1258;125235;-84
2023/07/28 00:54:01;;;;;;;;;;;;;;;15.77;66.56;100193.32;108938;1258;60144;-83
2023/07/28 00:56:36;;;;;;;;;;;;;;;15.76;66.60;100191.90;108871;1260;75446;-83
2023/07/28 00:59:04;;;;;;;;;;;;;;;15.79;66.71;100193.47;108916;1259;67100;-84
2023/07/28 01:01:31;;;;;;;;;;;;;;;15.82;66.72;100190.80;108780;1262;71364;-85
2023/07/28 01:03:58;;;;;;;;;;;;;;;15.85;66.84;100194.16;108738;1260;123949;-85
2023/07/28 01:06:32;;;;;;;;;;;;;;;15.86;66.83;100189.73;108865;1259;59889;-84
2023/07/28 01:09:03;;;;;;;;;;;;;;;15.87;66.88;100190.95;108819;1259;124608;-86
2023/07/28 01:11:30;;;;;;;;;;;;;;;15.89;66.93;100190.23;108868;1260;66466;-85
2023/07/28 01:13:57;;;;;;;;;;;;;;;15.90;66.85;100184.92;108802;1260;72789;-84
2023/07/28 01:16:24;;;;;;;;;;;;;;;15.90;66.75;100184.74;108760;1259;124851;-86
2023/07/28 01:18:51;;;;;;;;;;;;;;;15.90;66.73;100178.91;108982;1259;59741;-85
2023/07/28 01:21:31;;;;;;;;;;;;;;;15.91;66.69;100171.99;108771;1261;125309;-84
2023/07/28 01:24:05;;;;;;;;;;;;;;;15.88;66.78;100174.48;108936;1259;65820;-84
2023/07/28 01:26:37;;;;;;;;;;;;;;;15.85;66.74;100172.39;108810;1259;72031;-84
2023/07/28 01:29:04;;;;;;;;;;;;;;;15.82;66.83;100173.13;108810;1259;60420;-85
2023/07/28 01:31:32;;;;;;;;;;;;;;;15.78;66.65;100174.73;108817;1261;59992;-85
2023/07/28 01:34:01;;;;;;;;;;;;;;;15.74;66.76;100177.40;108792;1260;124969;-84
2023/07/28 01:36:29;;;;;;;;;;;;;;;15.72;66.83;100173.83;108832;1260;67065;-84
2023/07/28 01:39:04;;;;;;;;;;;;;;;15.68;66.68;100168.73;108687;1259;124827;-85
2023/07/28 01:41:31;;;;;;;;;;;;;;;15.65;66.67;100168.73;108796;1258;59923;-84
2023/07/28 01:44:00;;;;;;;;;;;;;;;15.63;66.82;100167.34;108874;1259;59842;-84
2023/07/28 01:46:33;;;;;;;;;;;;;;;15.62;66.74;100163.11;108824;1258;125050;-84
2023/07/28 01:49:01;;;;;;;;;;;;;;;15.62;66.83;100159.21;108816;1260;65583;-84
2023/07/28 01:51:29;;;;;;;;;;;;;;;15.61;66.80;100161.33;108717;1259;125885;-84
2023/07/28 01:53:56;;;;;;;;;;;;;;;15.61;66.79;100158.86;108887;1259;60102;-84
2023/07/28 01:56:24;;;;;;;;;;;;;;;15.60;66.91;100155.52;108855;1260;60124;-83
2023/07/28 01:58:52;;;;;;;;;;;;;;;15.60;66.92;100155.52;108696;1259;123425;-85
2023/07/28 02:01:25;;;;;;;;;;;;;;;15.58;66.94;100156.05;108929;1258;65830;-84
2023/07/28 02:03:52;;;;;;;;;;;;;;;15.58;66.98;100153.58;108798;1259;124914;-85
2023/07/28 02:06:27;;;;;;;;;;;;;;;15.57;67.07;100145.62;108916;1259;59759;-86
2023/07/28 02:09:21;;;;;;;;;;;;;;;15.55;67.07;100144.73;108794;1258;127261;-86
2023/07/28 02:11:57;;;;;;;;;;;;;;;15.52;67.06;100138.92;108871;1259;75948;-84
2023/07/28 02:14:26;;;;;;;;;;;;;;;15.50;67.08;100146.00;108955;1260;65844;-84
2023/07/28 02:16:54;;;;;;;;;;;;;;;15.50;67.24;100146.00;108729;1258;124213;-84
2023/07/28 02:19:21;;;;;;;;;;;;;;;15.50;67.26;100139.48;108836;1260;60207;-84
2023/07/28 02:21:49;;;;;;;;;;;;;;;15.48;67.19;100137.00;108774;1259;123987;-84
2023/07/28 02:24:24;;;;;;;;;;;;;;;15.45;67.29;100129.41;108973;1259;73078;-83
2023/07/28 02:26:51;;;;;;;;;;;;;;;15.40;67.25;100126.80;108597;1260;125347;-83
2023/07/28 02:29:19;;;;;;;;;;;;;;;15.36;67.29;100133.52;108781;1259;73298;-83
2023/07/28 02:31:46;;;;;;;;;;;;;;;15.36;67.39;100135.83;108866;1260;60093;-84
2023/07/28 02:34:15;;;;;;;;;;;;;;;15.35;67.51;100136.52;108732;1261;124573;-84
2023/07/28 02:36:42;;;;;;;;;;;;;;;15.33;67.55;100137.41;108846;1259;74087;-85
2023/07/28 02:39:12;;;;;;;;;;;;;;;15.32;67.69;100137.95;108695;1258;123796;-84
2023/07/28 02:41:39;;;;;;;;;;;;;;;15.33;67.86;100131.77;108844;1259;70696;-83
2023/07/28 02:44:06;;;;;;;;;;;;;;;15.33;67.89;100129.46;108808;1258;59937;-83
2023/07/28 02:46:45;;;;;;;;;;;;;;;15.33;68.07;100135.48;108841;1259;123657;-84
2023/07/28 02:49:24;;;;;;;;;;;;;;;15.35;68.18;100140.06;108899;1259;74730;-82
2023/07/28 02:51:51;;;;;;;;;;;;;;;15.37;68.27;100133.16;108814;1259;124643;-84
2023/07/28 02:54:19;;;;;;;;;;;;;;;15.37;68.26;100132.64;108858;1259;73556;-84
2023/07/28 02:56:46;;;;;;;;;;;;;;;15.37;68.24;100134.92;108754;1259;124855;-84
2023/07/28 02:59:15;;;;;;;;;;;;;;;15.35;68.18;100132.46;109040;1258;59741;-85
2023/07/28 03:01:42;;;;;;;;;;;;;;;15.37;68.27;100131.92;108935;1259;75987;-85
2023/07/28 03:04:09;;;;;;;;;;;;;;;15.39;68.30;100133.51;108735;1261;125633;-85
2023/07/28 03:06:37;;;;;;;;;;;;;;;15.43;68.31;100134.02;108860;1260;72231;-84
2023/07/28 03:09:04;;;;;;;;;;;;;;;15.47;68.26;100133.81;108782;1260;125364;-85
2023/07/28 03:11:32;;;;;;;;;;;;;;;15.51;68.28;100126.91;108843;1261;59760;-85
2023/07/28 03:14:00;;;;;;;;;;;;;;;15.55;68.31;100126.35;108817;1260;74482;-83
2023/07/28 03:16:29;;;;;;;;;;;;;;;15.60;68.19;100124.73;108671;1260;125244;-83
2023/07/28 03:18:57;;;;;;;;;;;;;;;15.64;68.18;100126.11;108819;1260;71515;-83
2023/07/28 03:21:24;;;;;;;;;;;;;;;15.69;68.09;100126.27;108553;1260;125260;-82
2023/07/28 03:23:51;;;;;;;;;;;;;;;15.74;68.14;100123.27;108671;1260;60024;-83
2023/07/28 03:26:18;;;;;;;;;;;;;;;15.78;68.11;100122.19;108771;1260;73350;-83
2023/07/28 03:28:45;;;;;;;;;;;;;;;15.82;68.15;100115.98;108769;1260;125707;-84
2023/07/28 03:31:12;;;;;;;;;;;;;;;15.86;68.18;100115.41;108894;1260;71279;-83
2023/07/28 03:33:47;;;;;;;;;;;;;;;15.89;68.17;100113.98;108764;1260;125043;-84
2023/07/28 03:36:15;;;;;;;;;;;;;;;15.91;68.19;100117.14;108899;1259;60176;-83
2023/07/28 03:38:48;;;;;;;;;;;;;;;15.96;68.13;100118.01;108766;1260;126582;-83
2023/07/28 03:41:15;;;;;;;;;;;;;;;15.97;68.10;100118.15;108891;1260;66838;-84
2023/07/28 03:43:49;;;;;;;;;;;;;;;16.00;68.12;100113.89;108843;1260;72846;-83
2023/07/28 03:46:25;;;;;;;;;;;;;;;16.04;68.15;100109.09;108697;1260;125393;-85
2023/07/28 03:48:54;;;;;;;;;;;;;;;16.07;68.24;100105.69;108815;1260;60046;-85
2023/07/28 03:51:21;;;;;;;;;;;;;;;16.12;68.32;100104.41;108682;1260;126170;-84
2023/07/28 03:53:49;;;;;;;;;;;;;;;16.15;68.33;100105.98;108805;1260;65719;-84
2023/07/28 03:56:16;;;;;;;;;;;;;;;16.19;68.37;100105.78;108786;1260;72866;-85
2023/07/28 03:58:44;;;;;;;;;;;;;;;16.22;68.21;100101.52;108748;1260;124604;-84
2023/07/28 04:01:21;;;;;;;;;;;;;;;16.23;68.40;100099.73;108821;1260;59856;-84
2023/07/28 04:03:49;;;;;;;;;;;;;;;16.26;68.16;100097.76;108679;1260;124452;-84
2023/07/28 04:06:17;;;;;;;;;;;;;;;16.30;68.26;100096.47;108921;1259;66381;-83
2023/07/28 04:08:46;;;;;;;;;;;;;;;16.32;68.12;100098.23;108752;1259;124725;-84
2023/07/28 04:11:22;;;;;;;;;;;;;;;16.31;68.03;100090.80;108967;1259;59860;-83
2023/07/28 04:13:56;;;;;;;;;;;;;;;16.31;68.11;100087.98;108933;1258;59981;-84
2023/07/28 04:16:23;;;;;;;;;;;;;;;16.33;68.14;100087.95;108774;1259;124689;-83
2023/07/28 04:18:52;;;;;;;;;;;;;;;16.36;68.19;100081.37;108875;1261;67130;-84
2023/07/28 04:21:21;;;;;;;;;;;;;;;16.37;68.14;100073.39;108774;1260;124556;-85
2023/07/28 04:23:48;;;;;;;;;;;;;;;16.38;68.00;100073.56;108913;1259;59996;-83
2023/07/28 04:26:16;;;;;;;;;;;;;;;16.39;67.96;100066.83;108869;1259;59790;-84
2023/07/28 04:28:43;;;;;;;;;;;;;;;16.41;67.85;100067.33;108729;1259;124585;-84
2023/07/28 04:31:11;;;;;;;;;;;;;;;16.46;67.84;100065.69;108894;1260;65521;-84
2023/07/28 04:33:45;;;;;;;;;;;;;;;16.51;67.74;100066.52;108690;1259;125168;-84
2023/07/28 04:36:13;;;;;;;;;;;;;;;16.57;67.47;100065.23;108815;1261;59921;-83
2023/07/28 04:38:40;;;;;;;;;;;;;;;16.58;67.47;100063.09;108707;1260;124519;-82
2023/07/28 04:41:09;;;;;;;;;;;;;;;16.61;67.52;100062.17;108848;1259;75501;-82
2023/07/28 04:43:36;;;;;;;;;;;;;;;16.63;67.55;100060.38;108727;1260;67067;-83
2023/07/28 04:46:03;;;;;;;;;;;;;;;16.65;67.56;100059.30;108687;1259;124535;-82
2023/07/28 04:48:38;;;;;;;;;;;;;;;16.67;67.51;100060.34;108835;1260;60122;-83
2023/07/28 04:51:05;;;;;;;;;;;;;;;16.68;67.63;100053.23;108783;1260;124547;-83
2023/07/28 04:53:34;;;;;;;;;;;;;;;16.69;67.75;100048.27;108892;1259;74692;-84
2023/07/28 04:56:08;;;;;;;;;;;;;;;16.70;67.52;100045.95;108934;1260;65766;-85
2023/07/28 04:58:36;;;;;;;;;;;;;;;16.69;67.38;100034.10;108723;1259;124665;-84
2023/07/28 05:01:12;;;;;;;;;;;;;;;16.72;67.22;100038.49;108789;1261;60131;-85
2023/07/28 05:03:39;;;;;;;;;;;;;;;16.76;67.09;100037.55;108737;1261;124507;-84
2023/07/28 05:06:06;;;;;;;;;;;;;;;16.81;66.95;100038.92;108821;1260;75290;-85
2023/07/28 05:08:33;;;;;;;;;;;;;;;16.87;66.97;100037.11;108745;1260;65644;-85
2023/07/28 05:11:01;;;;;;;;;;;;;;;16.94;66.94;100035.25;108760;1259;124780;-85
2023/07/28 05:13:36;;;;;;;;;;;;;;;17.01;66.82;100034.98;108901;1260;59700;-84
2023/07/28 05:16:15;;;;;;;;;;;;;;;17.07;66.71;100035.44;108889;1259;124300;-84
2023/07/28 05:18:43;;;;;;;;;;;;;;;17.12;66.70;100036.61;108868;1260;75370;-84
2023/07/28 05:21:17;;;;;;;;;;;;;;;17.17;66.82;100037.80;108802;1259;125439;-85
2023/07/28 05:23:52;;;;;;;;;;;;;;;17.20;66.78;100042.71;108856;1259;71817;-85
2023/07/28 05:26:20;;;;;;;;;;;;;;;17.24;66.82;100046.73;108841;1259;59785;-83
2023/07/28 05:28:47;;;;;;;;;;;;;;;17.30;66.86;100047.54;108809;1259;125056;-83
2023/07/28 05:31:16;;;;;;;;;;;;;;;17.37;66.86;100040.18;108788;1260;74506;-83
2023/07/28 05:33:58;;;;;;;;;;;;;;;17.42;66.86;100036.55;108796;1259;125613;-84
2023/07/28 05:36:25;;;;;;;;;;;;;;;17.50;66.88;100030.05;108896;1260;71847;-84
2023/07/28 05:38:53;;;;;;;;;;;;;;;17.60;66.89;100024.58;108662;1260;125427;-85
2023/07/28 05:41:24;;;;;;;;;;;;;;;17.72;66.84;100020.30;108768;1259;60586;-85
2023/07/28 05:43:51;;;;;;;;;;;;;;;17.89;66.79;100019.70;108909;1259;73953;-85
2023/07/28 05:46:25;;;;;;;;;;;;;;;18.05;66.54;100012.69;108758;1259;125835;-85
2023/07/28 05:48:59;;;;;;;;;;;;;;;18.20;66.46;100013.48;108841;1260;73329;-85
2023/07/28 05:51:28;;;;;;;;;;;;;;;18.39;66.35;100009.95;108770;1260;125065;-85
2023/07/28 05:54:03;;;;;;;;;;;;;;;18.56;66.05;100012.27;108942;1259;59886;-85
2023/07/28 05:56:35;;;;;;;;;;;;;;;18.70;65.64;100010.95;108877;1259;75161;-84
2023/07/28 05:59:03;;;;;;;;;;;;;;;18.79;65.27;100011.48;108852;1260;65630;-83
2023/07/28 06:01:31;;;;;;;;;;;;;;;18.85;64.97;100007.83;108903;1260;71506;-85
2023/07/28 06:04:01;;;;;;;;;;;;;;;18.92;64.80;100005.71;108756;1260;123576;-84
2023/07/28 06:06:28;;;;;;;;;;;;;;;19.04;64.76;100005.46;108798;1261;59771;-84
2023/07/28 06:08:55;;;;;;;;;;;;;;;19.22;64.72;100002.23;108790;1260;125289;-84
2023/07/28 06:11:22;;;;;;;;;;;;;;;19.44;64.56;100005.29;108772;1260;68102;-83
2023/07/28 06:13:50;;;;;;;;;;;;;;;19.69;64.26;100005.74;108737;1260;71139;-84
2023/07/28 06:16:17;;;;;;;;;;;;;;;19.91;63.71;100000.27;108679;1260;124637;-84
2023/07/28 06:18:45;;;;;;;;;;;;;;;20.05;63.25;100002.58;108899;1260;61341;-84
2023/07/28 06:21:19;;;;;;;;;;;;;;;20.08;62.82;100006.05;108748;1260;124650;-85
2023/07/28 06:24:00;;;;;;;;;;;;;;;20.14;62.64;100007.33;108881;1260;67038;-84
2023/07/28 06:26:28;;;;;;;;;;;;;;;20.17;62.22;100002.06;108855;1260;72746;-85
2023/07/28 06:29:02;;;;;;;;;;;;;;;20.22;62.17;100001.07;108703;1260;124914;-84
2023/07/28 06:31:29;;;;;;;;;;;;;;;20.31;61.92;100000.98;108786;1261;60241;-84
2023/07/28 06:33:57;;;;;;;;;;;;;;;20.43;61.59;99998.88;108698;1260;124860;-85
2023/07/28 06:36:27;;;;;;;;;;;;;;;20.54;61.37;100000.16;108821;1260;66192;-88
2023/07/28 06:39:03;;;;;;;;;;;;;;;20.61;61.13;99996.45;108654;1260;125296;-88
2023/07/28 06:41:37;;;;;;;;;;;;;;;20.73;61.14;99996.44;108741;1260;59891;-81
2023/07/28 06:44:04;;;;;;;;;;;;;;;20.89;60.92;99993.52;108714;1261;59998;-82
2023/07/28 06:46:31;;;;;;;;;;;;;;;21.04;60.69;99994.30;108581;1262;124755;-83
2023/07/28 06:48:59;;;;;;;;;;;;;;;21.19;60.39;99990.98;108758;1260;67182;-88
2023/07/28 06:51:26;;;;;;;;;;;;;;;21.39;60.37;99988.05;108652;1260;124604;-86
2023/07/28 06:53:53;;;;;;;;;;;;;;;21.63;60.16;99986.77;108731;1261;59964;-87
2023/07/28 06:56:20;;;;;;;;;;;;;;;21.84;59.85;99985.91;108771;1260;59865;-84
2023/07/28 06:58:49;;;;;;;;;;;;;;;22.08;59.49;99984.38;108635;1260;124474;-86
2023/07/28 07:01:17;;;;;;;;;;;;;;;22.31;59.04;99982.52;108721;1260;65870;-86
2023/07/28 07:03:45;;;;;;;;;;;;;;;22.50;58.84;99978.98;108850;1258;124337;-85
2023/07/28 07:06:12;;;;;;;;;;;;;;;22.66;58.66;99981.96;108915;1258;59871;-83
2023/07/28 07:08:51;;;;;;;;;;;;;;;22.81;58.12;99981.97;108919;1259;60060;-85
2023/07/28 07:11:19;;;;;;;;;;;;;;;22.94;57.89;99981.98;108930;1260;75495;-85
2023/07/28 07:13:46;;;;;;;;;;;;;;;23.05;57.37;99982.65;108995;1259;64763;-85
2023/07/28 07:16:16;;;;;;;;;;;;;;;23.16;57.02;99986.71;108835;1259;124388;-85
2023/07/28 07:18:50;;;;;;;;;;;;;;;23.26;56.60;99984.02;108955;1259;59927;-85
2023/07/28 07:21:23;;;;;;;;;;;;;;;23.34;56.38;99980.13;108767;1258;124495;-83
2023/07/28 07:24:04;;;;;;;;;;;;;;;23.42;55.74;99979.60;108957;1259;73196;-86
2023/07/28 07:26:38;;;;;;;;;;;;;;;23.48;55.51;99979.69;108870;1259;67630;-84
2023/07/28 07:29:05;;;;;;;;;;;;;;;23.62;55.17;99982.92;108746;1261;124182;-84
2023/07/28 07:31:32;;;;;;;;;;;;;;;23.81;55.21;99976.05;108893;1259;60217;-86
2023/07/28 07:34:02;;;;;;;;;;;;;;;23.99;54.88;99978.19;108763;1258;124611;-82
2023/07/28 07:36:35;;;;;;;;;;;;;;;24.12;54.39;99970.62;108776;1258;75297;-83
2023/07/28 07:39:04;;;;;;;;;;;;;;;24.25;53.87;99967.70;108813;1258;124455;-84
2023/07/28 07:41:33;;;;;;;;;;;;;;;24.42;53.29;99963.90;108816;1258;70266;-84
2023/07/28 07:44:02;;;;;;;;;;;;;;;24.68;53.00;99973.73;108824;1259;60033;-82
2023/07/28 07:46:36;;;;;;;;;;;;;;;25.00;52.66;99973.13;108809;1258;124723;-83
2023/07/28 07:49:05;;;;;;;;;;;;;;;25.19;52.19;99969.70;108804;1259;75564;-84
2023/07/28 07:51:47;;;;;;;;;;;;;;;25.34;51.86;99969.20;108877;1259;124329;-84
2023/07/28 07:54:18;;;;;;;;;;;;;;;25.45;51.16;99967.08;108947;1259;71424;-84
2023/07/28 07:56:58;;;;;;;;;;;;;;;25.54;50.92;99971.11;108855;1258;59840;-86
2023/07/28 07:59:27;;;;;;;;;;;;;;;25.60;50.52;99973.30;108809;1259;60191;-83
2023/07/28 08:01:55;;;;;;;;;;;;;;;25.61;50.28;99976.14;108878;1258;75243;-84
2023/07/28 08:04:24;;;;;;;;;;;;;;;25.49;49.90;99975.30;108792;1260;124549;-84
2023/07/28 08:06:57;;;;;;;;;;;;;;;25.29;49.66;99976.06;108966;1259;71445;-87
2023/07/28 08:09:25;;;;;;;;;;;;;;;25.03;49.66;99981.09;108853;1259;124767;-85
2023/07/28 08:11:53;;;;;;;;;;;;;;;24.75;49.65;99982.04;108973;1258;60293;-87
2023/07/28 08:14:32;;;;;;;;;;;;;;;24.41;50.02;99979.92;108958;1260;73951;-85
2023/07/28 08:17:05;;;;;;;;;;;;;;;24.04;50.14;99983.30;108920;1260;124312;-88
2023/07/28 08:19:34;;;;;;;;;;;;;;;23.72;50.41;99989.30;108937;1258;72739;-84
2023/07/28 08:22:03;;;;;;;;;;;;;;;23.44;50.62;99989.02;108712;1259;125559;-85
2023/07/28 08:24:31;;;;;;;;;;;;;;;23.24;50.84;99990.86;108898;1258;60656;-85
2023/07/28 08:26:58;;;;;;;;;;;;;;;23.13;51.28;99990.98;108789;1259;124596;-84
2023/07/28 08:29:27;;;;;;;;;;;;;;;23.00;51.38;99988.39;108900;1262;65441;-85
2023/07/28 08:31:55;;;;;;;;;;;;;;;22.82;51.53;99988.88;108796;1260;71251;-84
2023/07/28 08:34:22;;;;;;;;;;;;;;;22.66;51.51;99988.94;108794;1260;124888;-87
2023/07/28 08:37:08;;;;;;;;;;;;;;;22.48;51.79;99989.24;109138;1261;60111;-91
2023/07/28 08:39:51;;;;;;;;;;;;;;;22.28;52.22;99993.16;108962;1258;124203;-87
2023/07/28 08:42:20;;;;;;;;;;;;;;;22.11;52.47;99987.85;108931;1258;65795;-86
2023/07/28 08:45:08;;;;;;;;;;;;;;;21.94;52.70;99986.10;108878;1259;72695;-85
2023/07/28 08:47:41;;;;;;;;;;;;;;;21.80;52.98;99983.19;109021;1258;59806;-90
2023/07/28 08:53:31;;;;;;;;;;;;;;;21.54;53.47;99989.93;109072;1259;75587;-89
2023/07/28 08:56:23;;;;;;;;;;;;;;;21.43;53.65;99993.66;109038;1262;67039;-90
2023/07/28 08:59:48;;;;;;;;;;;;;;;21.27;53.95;99995.04;109004;1259;71433;-90
2023/07/28 09:02:20;;;;;;;;;;;;;;;21.21;54.18;99994.86;109048;1258;59705;-89
2023/07/28 09:08:23;;;;;;;;;;;;;;;21.12;54.70;99994.08;109023;1259;75106;-87
2023/07/28 09:10:51;;;;;;;;;;;;;;;21.14;54.84;99996.33;108876;1259;123360;-85
2023/07/28 09:13:24;;;;;;;;;;;;;;;21.18;54.97;99997.98;108942;1259;71194;-87
2023/07/28 09:15:51;;;;;;;;;;;;;;;21.17;55.08;100002.66;108840;1261;124276;-86
2023/07/28 09:18:27;;;;;;;;;;;;;;;21.26;55.42;100005.41;108913;1259;59897;-87
2023/07/28 09:20:56;;;;;;;;;;;;;;;21.41;55.56;99997.27;108942;1259;75550;-88
2023/07/28 09:26:50;;;;;;;;;;;;;;;21.91;55.46;99986.91;109117;1258;72423;-92
2023/07/28 09:29:41;;;;;;;;;;;;;;;22.15;55.20;99988.77;108885;1258;124226;-88
2023/07/28 09:35:30;;;;;;;;;;;;;;;22.51;54.73;99984.67;108880;1261;75685;-85
2023/07/28 09:38:05;;;;;;;;;;;;;;;22.55;54.45;99987.56;108842;1262;67348;-88
2023/07/28 09:40:37;;;;;;;;;;;;;;;22.64;54.60;99982.21;108858;1259;124937;-86
2023/07/28 09:43:06;;;;;;;;;;;;;;;22.85;54.43;99986.43;108847;1259;59920;-86
2023/07/28 09:45:42;;;;;;;;;;;;;;;22.91;54.08;99986.55;108803;1259;124487;-86
2023/07/28 09:48:33;;;;;;;;;;;;;;;22.87;53.84;99990.10;108877;1258;75592;-92
2023/07/28 09:51:26;;;;;;;;;;;;;;;22.79;53.98;99987.73;109083;1260;66098;-88
2023/07/28 09:53:55;;;;;;;;;;;;;;;22.74;53.93;99989.56;108990;1259;71328;-88
2023/07/28 09:56:42;;;;;;;;;;;;;;;22.71;53.74;99992.48;108935;1259;59829;-91
2023/07/28 09:59:29;;;;;;;;;;;;;;;22.69;53.67;99990.95;108838;1259;124286;-87
2023/07/28 10:02:10;;;;;;;;;;;;;;;22.67;53.60;99987.66;108908;1258;72965;-89
2023/07/28 10:04:37;;;;;;;;;;;;;;;22.70;53.75;99983.61;108744;1259;124881;-87
2023/07/28 10:07:07;;;;;;;;;;;;;;;22.91;53.98;99984.94;109018;1258;72780;-88
2023/07/28 10:13:09;;;;;;;;;;;;;;;23.73;53.45;99990.70;109069;1259;59747;-89
2023/07/28 10:15:58;;;;;;;;;;;;;;;23.90;53.31;99991.83;108883;1259;124727;-90
2023/07/28 10:18:56;;;;;;;;;;;;;;;24.25;52.89;99990.48;109041;1259;65866;-89
2023/07/28 10:25:17;;;;;;;;;;;;;;;24.96;51.94;99991.98;108999;1260;59753;-89
2023/07/28 10:28:52;;;;;;;;;;;;;;;25.02;51.44;99992.44;108935;1260;124277;-88
2023/07/28 10:31:29;;;;;;;;;;;;;;;24.89;50.98;99996.08;109038;1258;74516;-92
2023/07/28 10:34:11;;;;;;;;;;;;;;;24.84;51.10;99995.41;108858;1259;124451;-91
2023/07/28 10:36:40;;;;;;;;;;;;;;;24.75;50.86;99996.53;108878;1259;72714;-88
2023/07/28 10:39:14;;;;;;;;;;;;;;;24.62;50.92;99991.73;108783;1259;124432;-88
2023/07/28 10:42:00;;;;;;;;;;;;;;;24.44;51.04;99996.13;108909;1258;60143;-87
2023/07/28 10:44:27;;;;;;;;;;;;;;;24.23;51.16;99997.74;108957;1258;74231;-85
2023/07/28 10:47:20;;;;;;;;;;;;;;;24.06;51.26;99997.04;108958;1259;123047;-85
2023/07/28 10:49:48;;;;;;;;;;;;;;;23.85;51.41;99997.39;106246;1259;3430133;-89
2023/07/28 10:52:33;;;;;;;;;;;;;;;23.76;51.71;99998.46;108911;1259;124631;-89
2023/07/28 10:58:26;;;;;;;;;;;;;;;23.56;52.06;99994.44;109027;1259;124310;-87
2023/07/28 11:01:24;;;;;;;;;;;;;;;23.48;51.97;99993.11;109005;1259;67102;-91
2023/07/28 11:03:56;;;;;;;;;;;;;;;23.52;52.42;99998.17;108990;1259;124218;-93
2023/07/28 11:06:57;;;;;;;;;;;;;;;23.62;52.15;100000.80;109066;1259;59102;-92
2023/07/28 11:09:36;;;;;;;;;;;;;;;23.70;52.29;100004.63;108965;1258;124540;-90
2023/07/28 11:12:08;;;;;;;;;;;;;;;23.80;52.26;100002.80;108904;1259;75321;-90
2023/07/28 11:14:37;;;;;;;;;;;;;;;23.83;52.16;100004.63;108975;1259;67192;-90
2023/07/28 11:17:06;;;;;;;;;;;;;;;23.72;51.92;100002.40;108934;1259;123226;-90
2023/07/28 11:26:36;;;;;;;;;;;;;;;23.63;52.46;99997.73;109140;1259;75301;-89
2023/07/28 11:29:03;;;;;;;;;;;;;;;23.62;52.46;100000.63;108809;1260;124364;-89
2023/07/28 11:31:31;;;;;;;;;;;;;;;23.59;52.28;100000.23;108862;1259;72720;-89
2023/07/28 11:33:58;;;;;;;;;;;;;;;23.57;52.32;99997.27;108754;1259;124576;-89
2023/07/28 11:36:29;;;;;;;;;;;;;;;23.71;52.47;99994.90;108871;1261;59734;-88
2023/07/28 11:39:00;;;;;;;;;;;;;;;23.94;52.32;99992.36;108852;1264;73836;-88
2023/07/28 11:41:34;;;;;;;;;;;;;;;24.17;52.21;99997.30;108812;1259;125115;-88
2023/07/28 11:44:02;;;;;;;;;;;;;;;24.32;51.61;99997.21;108954;1259;74401;-87
2023/07/28 11:46:41;;;;;;;;;;;;;;;24.45;51.58;99996.79;108830;1259;124224;-88
2023/07/28 11:49:29;;;;;;;;;;;;;;;;;;;;;
2023/07/28 11:52:43;;;;;;;;;;;;;;;24.51;50.95;99985.59;108707;1259;123080;-88
2023/07/28 11:55:21;;;;;;;;;;;;;;;24.49;50.83;99983.31;109030;1259;67186;-87
2023/07/28 11:58:20;;;;;;;;;;;;;;;24.54;50.80;99985.09;108764;1262;124610;-88
2023/07/28 12:04:27;;;;;;;;;;;;;;;25.01;50.56;99996.79;108939;1260;124198;-88
2023/07/28 12:07:19;;;;;;;;;;;;;;;25.23;50.47;99995.04;109096;1259;76365;-92
2023/07/28 12:09:59;;;;;;;;;;;;;;;25.44;50.18;99992.07;108794;1259;124470;-89
2023/07/28 12:12:30;;;;;;;;;;;;;;;25.62;50.10;99992.10;108942;1259;73185;-87
2023/07/28 12:25:15;;;;;;;;;;;;;;;26.59;48.80;99995.27;109154;1259;65569;-91
2023/07/28 12:27:55;;;;;;;;;;;;;;;26.70;48.59;99995.92;108791;1259;124355;-90
2023/07/28 12:30:24;;;;;;;;;;;;;;;26.72;48.23;99995.13;108998;1259;59988;-91
2023/07/28 12:33:00;;;;;;;;;;;;;;;26.80;48.18;99997.21;108941;1259;59634;-89
2023/07/28 12:35:30;;;;;;;;;;;;;;;26.84;47.86;100000.77;108842;1259;124297;-90
2023/07/28 12:38:07;;;;;;;;;;;;;;;26.80;47.75;100001.91;108907;1259;67728;-90
2023/07/28 12:44:08;;;;;;;;;;;;;;;26.43;47.69;100004.18;109078;1260;59850;-91
2023/07/28 12:47:16;;;;;;;;;;;;;;;26.11;47.46;100008.16;108819;1259;124426;-87
2023/07/28 12:49:46;;;;;;;;;;;;;;;25.84;47.98;100007.20;108917;1259;74858;-90
2023/07/28 12:58:45;;;;;;;;;;;;;;;26.32;48.41;100006.55;108926;1259;124520;-87
2023/07/28 13:04:22;;;;;;;;;;;;;;;26.45;47.79;100014.70;109035;1262;124575;-88
2023/07/28 13:07:23;;;;;;;;;;;;;;;26.15;47.81;100015.69;108950;1265;67238;-88
2023/07/28 13:09:52;;;;;;;;;;;;;;;25.80;47.84;100021.23;108842;1260;125054;-88
2023/07/28 13:12:20;;;;;;;;;;;;;;;25.48;47.94;100020.45;108925;1261;59841;-86
2023/07/28 13:18:36;;;;;;;;;;;;;;;24.68;48.31;100022.52;109045;1259;74468;-88
2023/07/28 13:21:16;;;;;;;;;;;;;;;24.43;48.48;100016.96;109043;1259;65723;-89
2023/07/28 13:27:37;;;;;;;;;;;;;;;24.09;48.53;100017.16;109090;1260;59633;-91
2023/07/28 13:33:40;;;;;;;;;;;;;;;24.30;49.10;100022.02;108897;1263;124963;-86
2023/07/28 13:36:14;;;;;;;;;;;;;;;24.45;48.99;100026.57;108967;1259;65609;-87
2023/07/28 13:39:09;;;;;;;;;;;;;;;;;;;;;
2023/07/28 13:42:01;;;;;;;;;;;;;;;24.55;48.58;100026.11;108907;1260;124621;-92
2023/07/28 13:47:57;;;;;;;;;;;;;;;24.94;48.51;100036.23;108946;1259;124448;-85
2023/07/28 13:50:24;;;;;;;;;;;;;;;25.05;48.20;100037.88;108854;1259;67073;-91
2023/07/28 13:53:00;;;;;;;;;;;;;;;25.09;48.11;100036.80;108823;1260;124621;-87
2023/07/28 13:55:40;;;;;;;;;;;;;;;25.12;47.97;100046.36;108837;1260;59801;-87
2023/07/28 14:01:50;;;;;;;;;;;;;;;24.96;47.85;100044.40;109117;1260;74265;-89
2023/07/28 14:04:24;;;;;;;;;;;;;;;25.08;47.65;100047.60;108846;1259;124321;-86
2023/07/28 14:07:09;;;;;;;;;;;;;;;25.24;47.60;100048.14;108940;1260;71615;-88
2023/07/28 14:16:25;;;;;;;;;;;;;;;25.31;46.99;100043.52;108879;1263;123559;-91
2023/07/28 14:18:56;;;;;;;;;;;;;;;25.24;47.10;100046.35;108632;1263;64632;-86